createdAt,value
2024-03-22T00:01:30.868Z,94458.77
2024-03-22T00:04:02.418Z,94458.07
2024-03-22T00:06:33.954Z,94450.45
2024-03-22T00:09:06.237Z,94447.59
2024-03-22T00:11:40.356Z,94448.70
2024-03-22T00:14:12.811Z,94450.84
2024-03-22T00:16:44.396Z,94442.56
2024-03-22T00:19:15.923Z,94441.91
2024-03-22T00:21:47.454Z,94435.81
2024-03-22T00:24:18.913Z,94435.53
2024-03-22T00:26:50.590Z,94440.70
2024-03-22T00:29:22.346Z,94437.43
2024-03-22T00:31:53.817Z,94441.58
2024-03-22T00:34:25.292Z,94445.39
2024-03-22T00:36:57.032Z,94442.89
2024-03-22T00:39:28.655Z,94438.42
2024-03-22T00:42:00.229Z,94437.92
2024-03-22T00:44:31.731Z,94435.59
2024-03-22T00:47:04.468Z,94431.62
2024-03-22T00:49:36.073Z,94433.23
2024-03-22T00:52:07.701Z,94429.95
2024-03-22T00:54:40.517Z,94433.27
2024-03-22T00:57:12.116Z,94430.29
2024-03-22T00:59:43.588Z,94432.11
2024-03-22T01:02:15.077Z,94429.61
2024-03-22T01:04:46.701Z,94433.91
2024-03-22T01:07:18.298Z,94431.95
2024-03-22T01:09:49.984Z,94429.97
2024-03-22T01:12:21.470Z,94432.98
2024-03-22T01:14:52.965Z,94428.85
2024-03-22T01:17:25.063Z,94423.39
2024-03-22T01:19:56.797Z,94421.91
2024-03-22T01:22:28.383Z,94421.96
2024-03-22T01:24:59.860Z,94431.52
2024-03-22T01:27:31.594Z,94432.22
2024-03-22T01:30:03.990Z,94428.11
2024-03-22T01:32:36.704Z,94430.79
2024-03-22T01:35:09.653Z,94430.48
2024-03-22T01:37:41.965Z,94422.08
2024-03-22T01:40:14.497Z,94418.13
2024-03-22T01:42:45.927Z,94420.45
2024-03-22T01:45:17.382Z,94417.80
2024-03-22T01:47:48.987Z,94419.52
2024-03-22T01:50:22.037Z,94412.37
2024-03-22T01:52:53.567Z,94409.77
2024-03-22T01:55:25.365Z,94409.75
2024-03-22T01:57:56.903Z,94403.78
2024-03-22T02:00:28.386Z,94408.41
2024-03-22T02:02:59.973Z,94401.33
2024-03-22T02:05:31.577Z,94409.96
2024-03-22T02:08:03.357Z,94399.23
2024-03-22T02:10:35.041Z,94388.20
2024-03-22T02:13:06.526Z,94382.50
2024-03-22T02:15:38.234Z,94382.34
2024-03-22T02:18:10.806Z,94375.91
2024-03-22T02:20:42.427Z,94375.81
2024-03-22T02:23:13.881Z,94372.36
2024-03-22T02:25:45.502Z,94374.88
2024-03-22T02:28:16.935Z,94372.73
2024-03-22T02:30:48.412Z,94373.59
2024-03-22T02:33:20.107Z,94365.16
2024-03-22T02:35:52.017Z,94362.70
2024-03-22T02:38:24.153Z,94359.09
2024-03-22T02:40:55.649Z,94355.47
2024-03-22T02:43:27.116Z,94355.89
2024-03-22T02:45:58.618Z,94347.16
2024-03-22T02:48:30.190Z,94353.66
2024-03-22T02:51:01.708Z,94354.20
2024-03-22T02:53:33.242Z,94350.77
2024-03-22T02:56:05.181Z,94348.95
2024-03-22T02:58:37.754Z,94349.12
2024-03-22T03:01:09.678Z,94333.90
2024-03-22T03:03:41.284Z,94339.19
2024-03-22T03:06:14.312Z,94344.15
2024-03-22T03:08:46.100Z,94346.48
2024-03-22T03:11:17.642Z,94346.00
2024-03-22T03:13:49.199Z,94342.23
2024-03-22T03:16:20.746Z,94337.14
2024-03-22T03:18:52.246Z,94334.86
2024-03-22T03:21:23.761Z,94326.42
2024-03-22T03:23:55.270Z,94329.09
2024-03-22T03:26:27.380Z,94336.98
2024-03-22T03:28:58.853Z,94337.31
2024-03-22T03:31:30.392Z,94333.16
2024-03-22T03:34:01.970Z,94336.97
2024-03-22T03:36:33.560Z,94337.63
2024-03-22T03:39:05.161Z,94333.52
2024-03-22T03:41:36.934Z,94328.80
2024-03-22T03:44:08.551Z,94322.86
2024-03-22T03:46:40.078Z,94323.70
2024-03-22T03:49:11.629Z,94324.39
2024-03-22T03:51:43.284Z,94323.09
2024-03-22T03:54:14.847Z,94317.32
2024-03-22T03:56:46.311Z,94320.44
2024-03-22T03:59:18.654Z,94318.11
2024-03-22T04:01:50.172Z,94315.14
2024-03-22T04:04:21.798Z,94313.96
2024-03-22T04:06:53.391Z,94314.95
2024-03-22T04:09:24.986Z,94303.39
2024-03-22T04:11:59.800Z,94303.89
2024-03-22T04:14:31.362Z,94299.11
2024-03-22T04:17:02.971Z,94299.48
2024-03-22T04:19:34.425Z,94304.65
2024-03-22T04:22:06.050Z,94296.56
2024-03-22T04:24:37.578Z,94295.91
2024-03-22T04:27:09.055Z,94292.60
2024-03-22T04:29:40.543Z,94287.45
2024-03-22T04:32:12.058Z,94283.30
2024-03-22T04:34:44.168Z,94284.10
2024-03-22T04:37:15.641Z,94285.30
2024-03-22T04:39:49.755Z,94280.17
2024-03-22T04:42:21.222Z,94279.54
2024-03-22T04:44:52.748Z,94274.58
2024-03-22T04:47:24.785Z,94269.31
2024-03-22T04:52:47.375Z,94285.23
2024-03-22T04:55:18.854Z,94286.84
2024-03-22T04:57:51.053Z,94279.05
2024-03-22T05:00:22.594Z,94281.88
2024-03-22T05:02:54.107Z,94292.67
2024-03-22T05:05:25.566Z,94289.38
2024-03-22T05:07:57.143Z,94285.56
2024-03-22T05:10:29.893Z,94292.71
2024-03-22T05:13:01.738Z,94286.92
2024-03-22T05:15:33.248Z,94282.27
2024-03-22T05:18:05.695Z,94272.05
2024-03-22T05:20:37.210Z,94276.30
2024-03-22T05:23:08.738Z,94272.52
2024-03-22T05:25:40.234Z,94272.23
2024-03-22T05:28:12.615Z,94261.79
2024-03-22T05:30:44.154Z,94256.67
2024-03-22T05:33:15.640Z,94256.83
2024-03-22T05:35:47.802Z,94250.70
2024-03-22T05:38:19.349Z,94244.08
2024-03-22T05:40:51.207Z,94244.95
2024-03-22T05:43:22.776Z,94239.64
2024-03-22T05:45:54.359Z,94240.83
2024-03-22T05:48:27.012Z,94239.66
2024-03-22T05:50:58.461Z,94239.84
2024-03-22T05:53:29.902Z,94231.25
2024-03-22T05:56:01.436Z,94229.63
2024-03-22T05:58:33.003Z,94227.14
2024-03-22T06:01:04.616Z,94221.52
2024-03-22T06:03:36.139Z,94213.58
2024-03-22T06:06:07.754Z,94213.77
2024-03-22T06:08:40.634Z,94213.05
2024-03-22T06:11:15.305Z,94207.76
2024-03-22T06:13:47.952Z,94204.62
2024-03-22T06:16:20.951Z,94196.69
2024-03-22T06:18:54.354Z,94191.71
2024-03-22T06:21:26.876Z,94195.52
2024-03-22T06:23:58.396Z,94195.69
2024-03-22T06:26:37.942Z,94196.51
2024-03-22T06:29:13.720Z,94197.36
2024-03-22T06:31:45.290Z,94195.55
2024-03-22T06:34:16.991Z,94194.55
2024-03-22T06:36:49.927Z,94196.95
2024-03-22T06:39:21.700Z,94195.00
2024-03-22T06:41:53.262Z,94196.01
2024-03-22T06:44:24.778Z,94201.66
2024-03-22T06:46:56.223Z,94201.17
2024-03-22T06:49:27.779Z,94196.08
2024-03-22T06:52:00.300Z,94190.33
2024-03-22T06:54:31.875Z,94181.96
2024-03-22T06:57:03.787Z,94179.84
2024-03-22T06:59:35.339Z,94172.08
2024-03-22T07:02:06.880Z,94167.30
2024-03-22T07:04:38.905Z,94160.83
2024-03-22T07:07:10.512Z,94162.48
2024-03-22T07:09:42.510Z,94156.38
2024-03-22T07:19:19.599Z,94139.77
2024-03-22T07:22:52.066Z,94124.92
2024-03-22T07:26:37.725Z,94122.10
2024-03-22T07:29:34.987Z,94120.98
2024-03-22T07:32:56.646Z,94116.21
2024-03-22T07:36:11.045Z,94116.56
2024-03-22T07:39:22.118Z,94116.41
2024-03-22T07:45:14.536Z,94112.17
2024-03-22T07:48:39.572Z,94099.50
2024-03-22T07:52:10.614Z,94088.61
2024-03-22T07:57:58.755Z,94091.25
2024-03-22T08:00:30.240Z,94084.83
2024-03-22T08:03:01.784Z,94076.42
2024-03-22T08:05:33.387Z,94070.51
2024-03-22T08:08:05.229Z,94064.92
2024-03-22T08:10:36.858Z,94066.44
2024-03-22T08:13:08.621Z,94063.33
2024-03-22T08:15:40.324Z,94064.00
2024-03-22T08:18:12.188Z,94063.01
2024-03-22T08:20:43.889Z,94048.82
2024-03-22T08:23:15.482Z,94044.21
2024-03-22T08:25:47.607Z,94045.23
2024-03-22T08:28:27.150Z,94040.60
2024-03-22T08:31:07.144Z,94036.14
2024-03-22T08:33:38.594Z,94030.20
2024-03-22T08:36:10.254Z,94022.58
2024-03-22T08:38:41.901Z,94016.29
2024-03-22T08:41:13.532Z,94012.64
2024-03-22T08:43:46.554Z,94007.00
2024-03-22T08:46:18.117Z,94001.85
2024-03-22T08:48:49.783Z,93997.67
2024-03-22T08:51:22.863Z,93995.92
2024-03-22T08:53:56.341Z,94000.33
2024-03-22T08:56:28.276Z,93995.67
2024-03-22T08:59:00.812Z,93995.89
2024-03-22T09:01:33.697Z,93989.00
2024-03-22T09:04:05.559Z,93978.94
2024-03-22T09:06:37.456Z,93973.33
2024-03-22T09:09:10.179Z,93968.17
2024-03-22T09:11:41.738Z,93971.79
2024-03-22T09:14:13.482Z,93968.47
2024-03-22T09:16:45.209Z,93951.98
2024-03-22T09:19:17.247Z,93949.00
2024-03-22T09:21:48.805Z,93941.88
2024-03-22T09:24:20.337Z,93937.49
2024-03-22T09:26:51.872Z,93932.00
2024-03-22T09:29:23.935Z,93924.86
2024-03-22T09:31:55.444Z,93916.41
2024-03-22T09:34:26.939Z,93919.54
2024-03-22T09:36:59.042Z,93917.56
2024-03-22T09:39:30.918Z,93923.70
2024-03-22T09:42:07.160Z,93926.20
2024-03-22T09:44:41.140Z,93924.55
2024-03-22T09:47:16.217Z,93917.97
2024-03-22T09:49:50.351Z,93909.71
2024-03-22T09:52:23.143Z,93910.55
2024-03-22T09:54:54.941Z,93910.60
2024-03-22T09:57:27.659Z,93907.00
2024-03-22T10:00:00.378Z,93898.27
2024-03-22T10:02:32.638Z,93900.88
2024-03-22T10:05:04.554Z,93891.44
2024-03-22T10:07:36.829Z,93886.13
2024-03-22T10:10:09.978Z,93887.80
2024-03-22T10:12:43.253Z,93885.31
2024-03-22T10:15:15.463Z,93882.48
2024-03-22T10:18:05.278Z,93880.00
2024-03-22T10:20:36.965Z,93875.89
2024-03-22T10:23:09.372Z,93883.16
2024-03-22T10:25:40.896Z,93872.57
2024-03-22T10:28:14.884Z,93867.27
2024-03-22T10:30:50.216Z,93872.02
2024-03-22T10:33:25.134Z,93874.02
2024-03-22T10:35:57.517Z,93863.43
2024-03-22T10:38:31.767Z,93856.46
2024-03-22T10:41:04.516Z,93853.50
2024-03-22T10:43:36.457Z,93846.08
2024-03-22T10:46:10.637Z,93842.10
2024-03-22T10:48:43.656Z,93837.45
2024-03-22T10:51:17.512Z,93834.28
2024-03-22T10:53:51.045Z,93826.14
2024-03-22T10:56:24.541Z,93820.94
2024-03-22T10:58:56.599Z,93815.95
2024-03-22T11:01:35.010Z,93809.16
2024-03-22T11:04:11.587Z,93814.93
2024-03-22T11:06:49.002Z,93810.63
2024-03-22T11:09:24.078Z,93811.42
2024-03-22T11:12:01.365Z,93814.52
2024-03-22T11:14:32.929Z,93813.53
2024-03-22T11:17:06.588Z,93808.56
2024-03-22T11:19:39.857Z,93799.11
2024-03-22T11:29:15.692Z,93778.48
2024-03-22T11:31:47.289Z,93778.29
2024-03-22T11:34:18.733Z,93769.63
2024-03-22T11:36:51.676Z,93762.33
2024-03-22T11:39:23.408Z,93750.19
2024-03-22T11:41:55.328Z,93746.33
2024-03-22T11:44:27.147Z,93738.98
2024-03-22T11:46:58.675Z,93735.98
2024-03-22T11:49:30.513Z,93742.08
2024-03-22T11:52:02.253Z,93747.04
2024-03-22T11:54:33.876Z,93746.91
2024-03-22T11:57:05.690Z,93740.58
2024-03-22T11:59:37.204Z,93733.41
2024-03-22T12:02:11.670Z,93727.27
2024-03-22T12:04:44.214Z,93722.27
2024-03-22T12:07:18.162Z,93724.73
2024-03-22T12:09:49.750Z,93725.23
2024-03-22T12:12:26.716Z,93710.77
2024-03-22T12:14:58.235Z,93698.77
